< < Back
Terminal Aerodrome Forecast


Current Version              Previous Versions:   1  2  3  4  5  6  7  8  9  

Terminal Aerodrome Forecast

681
FTUS44 KMRX 240522
TAFTYS
TAF
KTYS 240522Z 2406/2506 VRB04KT P6SM SKC
     FM241700 23009KT P6SM FEW060
     FM250200 21005KT P6SM SCT050 BKN150=

Latest METAR

859
SAUS80 KWBC 240700 CCA
MTRTYS
METAR KTYS 240653Z 02005KT 10SM CLR 08/01 A2998 RMK AO2 SLP148
T00830011


USA.gov is the U.S. government's official web portal to all federal, state and local government web resources and services.